Time;durP1;ratioP1;P1;durP2;ratioP2;P2;SDS_P1;SDS_P2;PMS_P1;PMS_P2;Temp;Humidity;BMP_temperature;BMP_pressure;BME280_temperature;BME280_humidity;BME280_pressure;Samples;Min_cycle;Max_cycle;Signal;HPM_P1;HPM_P2
2023/03/02 00:01:02;;;;;;;;;;;;;;;22.40;24.97;98472.50;5017641;28;931;-80
2023/03/02 00:03:28;;;;;;;;;;;;;;;22.19;25.52;98474.56;5017446;28;907;-79
2023/03/02 00:05:53;;;;;;;;;;;;;;;21.79;25.78;98474.53;5017858;28;918;-80
2023/03/02 00:08:19;;;;;;;;;;;;;;;21.79;25.57;98463.22;5033614;28;1140;-80
2023/03/02 00:10:45;;;;;;;;;;;;;;;21.70;26.07;98471.47;5017376;28;943;-80
2023/03/02 00:13:11;;;;;;;;;;;;;;;22.50;25.01;98460.91;5017674;28;947;-80
2023/03/02 00:15:36;;;;;;;;;;;;;;;22.16;25.45;98452.75;5022013;28;893;-80
2023/03/02 00:18:02;;;;;;;;;;;;;;;21.98;25.48;98458.00;5056159;28;1902;-80
2023/03/02 00:20:27;;;;;;;;;;;;;;;21.84;25.69;98454.19;5088324;28;833;-80
2023/03/02 00:22:53;;;;;;;;;;;;;;;21.78;25.94;98461.63;5071494;28;1177;-79
2023/03/02 00:25:19;;;;;;;;;;;;;;;21.66;26.02;98450.94;5071549;28;944;-80
2023/03/02 00:27:44;;;;;;;;;;;;;;;22.12;25.53;98452.03;5088155;28;949;-80
2023/03/02 00:30:10;;;;;;;;;;;;;;;22.26;25.25;98450.94;5071474;28;1248;-80
2023/03/02 00:32:36;;;;;;;;;;;;;;;21.78;25.94;98441.78;5071525;28;1178;-80
2023/03/02 00:35:02;;;;;;;;;;;;;;;21.54;25.94;98440.25;5071382;28;841;-80
2023/03/02 00:37:28;;;;;;;;;;;;;;;21.54;26.40;98440.25;5071540;28;1897;-80
2023/03/02 00:39:53;;;;;;;;;;;;;;;22.24;25.33;98430.75;5071594;28;1170;-80
2023/03/02 00:42:19;;;;;;;;;;;;;;;22.24;25.28;98434.38;5056167;28;888;-80
2023/03/02 00:44:45;;;;;;;;;;;;;;;22.19;25.09;98417.88;5073552;28;1158;-80
2023/03/02 00:47:10;;;;;;;;;;;;;;;21.92;25.43;98425.75;5073548;28;944;-80
2023/03/02 00:49:36;;;;;;;;;;;;;;;21.61;25.85;98428.78;5073533;28;985;-78
2023/03/02 00:52:02;;;;;;;;;;;;;;;21.63;25.79;98431.97;5056895;28;937;-80
2023/03/02 00:54:28;;;;;;;;;;;;;;;22.01;25.49;98428.75;5056704;28;986;-80
2023/03/02 00:56:54;;;;;;;;;;;;;;;22.02;25.62;98430.34;5056762;28;1902;-80
2023/03/02 00:59:26;;;;;;;;;;;;;;;21.92;25.42;98422.91;5056918;28;1329;-79
2023/03/02 01:01:58;;;;;;;;;;;;;;;21.72;25.93;98415.22;5056768;28;1589;-80
2023/03/02 01:04:28;;;;;;;;;;;;;;;21.82;25.77;98413.41;5057002;28;1183;-80
2023/03/02 01:06:54;;;;;;;;;;;;;;;22.14;25.52;98409.91;5056840;28;1240;-80
2023/03/02 01:09:21;;;;;;;;;;;;;;;22.09;25.35;98402.69;5056657;28;1178;-79
2023/03/02 01:11:47;;;;;;;;;;;;;;;22.27;25.25;98399.44;5076842;28;1269;-80
2023/03/02 01:14:12;;;;;;;;;;;;;;;21.85;25.71;98410.47;5076648;28;1237;-80
2023/03/02 01:16:38;;;;;;;;;;;;;;;21.73;25.85;98407.50;5035484;28;906;-80
2023/03/02 01:19:04;;;;;;;;;;;;;;;21.75;25.75;98411.50;5049525;28;1993;-80
2023/03/02 01:21:29;;;;;;;;;;;;;;;22.00;25.47;98413.00;5036152;28;993;-80
2023/03/02 01:23:55;;;;;;;;;;;;;;;22.09;25.33;98413.22;5053150;28;853;-80
2023/03/02 01:26:20;;;;;;;;;;;;;;;22.35;24.85;98406.56;5036998;28;1212;-80
2023/03/02 01:28:46;;;;;;;;;;;;;;;22.01;25.38;98400.44;5053522;28;1157;-81
2023/03/02 01:31:11;;;;;;;;;;;;;;;21.67;25.78;98393.06;5037465;28;1146;-80
2023/03/02 01:33:37;;;;;;;;;;;;;;;21.56;26.31;98398.16;5056621;28;1005;-80
2023/03/02 01:36:03;;;;;;;;;;;;;;;22.04;25.59;98396.72;5056445;28;880;-80
2023/03/02 01:38:28;;;;;;;;;;;;;;;22.44;24.66;98394.63;5056420;28;1933;-80
2023/03/02 01:40:54;;;;;;;;;;;;;;;22.16;25.00;98384.72;5016572;28;942;-81
2023/03/02 01:43:20;;;;;;;;;;;;;;;21.85;25.78;98404.81;4931747;28;1224;-80
2023/03/02 01:45:52;;;;;;;;;;;;;;;21.83;25.43;98401.63;4939466;29;916;-80
2023/03/02 01:48:34;;;;;;;;;;;;;;;21.75;25.93;98405.81;4923319;29;1160;-80
2023/03/02 01:51:00;;;;;;;;;;;;;;;21.87;25.71;98406.44;4957834;28;1263;-80
2023/03/02 01:53:27;;;;;;;;;;;;;;;22.11;25.43;98410.75;4967584;28;1175;-80
2023/03/02 01:55:53;;;;;;;;;;;;;;;21.87;25.36;98403.59;4977154;28;1268;-80
2023/03/02 01:58:18;;;;;;;;;;;;;;;21.85;25.53;98404.81;4977627;28;1918;-81
2023/03/02 02:00:44;;;;;;;;;;;;;;;21.66;25.81;98408.47;4977692;28;872;-80
2023/03/02 02:03:11;;;;;;;;;;;;;;;22.11;25.27;98405.09;4977705;28;807;-80
2023/03/02 02:05:38;;;;;;;;;;;;;;;22.17;25.12;98409.00;4976975;28;972;-80
2023/03/02 02:08:04;;;;;;;;;;;;;;;22.22;24.97;98407.69;4977119;28;1291;-80
2023/03/02 02:10:30;;;;;;;;;;;;;;;21.75;25.71;98393.69;4977301;28;1087;-80
2023/03/02 02:12:56;;;;;;;;;;;;;;;21.71;25.51;98395.81;5018139;28;1355;-80
2023/03/02 02:15:21;;;;;;;;;;;;;;;21.65;25.90;98398.34;5019376;28;1294;-80
2023/03/02 02:17:47;;;;;;;;;;;;;;;22.04;25.32;98400.34;5019349;28;1999;-81
2023/03/02 02:20:43;;;;;;;;;;;;;;;22.21;25.21;98404.06;5014395;28;1131;-80
2023/03/02 02:23:27;;;;;;;;;;;;;;;22.06;24.94;98394.25;4958281;28;953;-81
2023/03/02 02:25:56;;;;;;;;;;;;;;;21.82;25.23;98400.03;4959331;28;924;-80
2023/03/02 02:28:28;;;;;;;;;;;;;;;21.81;25.32;98392.78;4944915;28;1148;-80
2023/03/02 02:31:12;;;;;;;;;;;;;;;21.90;25.78;98405.53;4960933;28;1120;-80
2023/03/02 02:33:38;;;;;;;;;;;;;;;22.26;24.95;98400.69;4960499;28;1424;-80
2023/03/02 02:36:05;;;;;;;;;;;;;;;22.07;25.27;98401.50;4976726;28;1141;-80
2023/03/02 02:38:31;;;;;;;;;;;;;;;21.89;25.55;98409.59;4944565;28;1914;-80
2023/03/02 02:40:57;;;;;;;;;;;;;;;21.65;25.75;98406.84;4976714;28;1380;-80
2023/03/02 02:43:28;;;;;;;;;;;;;;;21.77;25.45;98400.53;4983699;28;1413;-80
2023/03/02 02:45:54;;;;;;;;;;;;;;;22.25;24.76;98403.97;4957300;29;903;-81
2023/03/02 02:48:23;;;;;;;;;;;;;;;22.34;24.91;98401.34;4925433;29;1227;-80
2023/03/02 02:50:49;;;;;;;;;;;;;;;21.87;25.22;98403.59;4941578;29;1100;-80
2023/03/02 02:53:16;;;;;;;;;;;;;;;21.79;25.55;98394.44;4981290;28;1139;-80
2023/03/02 02:55:42;;;;;;;;;;;;;;;21.44;25.93;98399.56;4999576;28;945;-80
2023/03/02 02:58:19;;;;;;;;;;;;;;;21.85;25.52;98401.97;4998908;28;1934;-80
2023/03/02 03:00:45;;;;;;;;;;;;;;;22.18;25.15;98398.50;5058267;28;1146;-80
2023/03/02 03:03:28;;;;;;;;;;;;;;;22.01;25.11;98406.09;5041590;28;1261;-80
2023/03/02 03:05:54;;;;;;;;;;;;;;;21.75;25.52;98400.16;5038143;28;1180;-80
2023/03/02 03:08:38;;;;;;;;;;;;;;;21.73;25.44;98411.13;5038192;28;1143;-80
2023/03/02 03:11:04;;;;;;;;;;;;;;;22.01;25.33;98403.25;5054819;28;922;-81
2023/03/02 03:13:30;;;;;;;;;;;;;;;22.17;24.90;98409.00;5024580;28;1134;-80
2023/03/02 03:15:56;;;;;;;;;;;;;;;22.20;24.69;98408.13;5074691;28;828;-80
2023/03/02 03:18:23;;;;;;;;;;;;;;;21.99;25.14;98402.91;5057856;28;1977;-80
2023/03/02 03:20:49;;;;;;;;;;;;;;;21.70;25.32;98403.50;5058146;28;1226;-80
2023/03/02 03:23:15;;;;;;;;;;;;;;;21.74;25.65;98401.41;5073009;28;919;-80
2023/03/02 03:25:40;;;;;;;;;;;;;;;22.24;24.63;98406.03;5072276;28;872;-80
2023/03/02 03:28:06;;;;;;;;;;;;;;;22.30;24.81;98401.41;5071093;28;1047;-81
2023/03/02 03:30:32;;;;;;;;;;;;;;;21.81;25.28;98406.09;5054562;28;1141;-80
2023/03/02 03:32:58;;;;;;;;;;;;;;;21.70;25.26;98409.16;5054769;28;863;-80
2023/03/02 03:35:24;;;;;;;;;;;;;;;21.75;25.38;98411.50;5038383;28;1118;-81
2023/03/02 03:37:50;;;;;;;;;;;;;;;22.07;25.08;98415.66;5072030;28;1984;-80
2023/03/02 03:40:17;;;;;;;;;;;;;;;22.38;24.45;98432.44;5072025;28;1082;-81
2023/03/02 03:42:44;;;;;;;;;;;;;;;22.31;24.50;98425.69;5071496;28;928;-81
2023/03/02 03:45:11;;;;;;;;;;;;;;;22.35;24.36;98420.75;5072085;28;1200;-80
2023/03/02 03:47:37;;;;;;;;;;;;;;;22.10;24.96;98426.97;5088812;28;895;-80
2023/03/02 03:50:05;;;;;;;;;;;;;;;21.99;24.88;98419.91;5077515;28;1172;-79
2023/03/02 03:52:31;;;;;;;;;;;;;;;21.70;25.45;98420.50;5061047;28;1111;-80
2023/03/02 03:55:05;;;;;;;;;;;;;;;21.99;25.03;98425.56;5077530;28;1143;-80
2023/03/02 03:57:31;;;;;;;;;;;;;;;22.27;24.82;98441.97;5044141;28;1918;-80
2023/03/02 03:59:57;;;;;;;;;;;;;;;22.10;24.71;98438.31;5044221;28;1256;-80
2023/03/02 04:02:23;;;;;;;;;;;;;;;21.74;25.51;98445.91;5077485;28;910;-80
2023/03/02 04:04:49;;;;;;;;;;;;;;;21.88;24.91;98437.13;5060939;28;1238;-80
2023/03/02 04:07:16;;;;;;;;;;;;;;;21.96;25.21;98443.44;5044607;28;1291;-81
2023/03/02 04:09:42;;;;;;;;;;;;;;;22.13;24.77;98439.47;5077590;28;1236;-80
2023/03/02 04:12:11;;;;;;;;;;;;;;;22.24;24.72;98437.19;5057665;28;1119;-80
2023/03/02 04:14:39;;;;;;;;;;;;;;;21.71;25.13;98441.94;5057165;28;1350;-80
2023/03/02 04:17:05;;;;;;;;;;;;;;;21.78;25.24;98438.97;5040583;28;1988;-80
2023/03/02 04:19:34;;;;;;;;;;;;;;;21.70;25.31;98437.50;5057879;28;1109;-81
2023/03/02 04:22:02;;;;;;;;;;;;;;;22.12;24.74;98435.03;5055999;28;1321;-80
2023/03/02 04:24:29;;;;;;;;;;;;;;;22.19;24.72;98437.72;5070205;28;1284;-81
2023/03/02 04:26:58;;;;;;;;;;;;;;;21.92;25.12;98437.88;5053270;28;1168;-81
2023/03/02 04:29:23;;;;;;;;;;;;;;;21.84;25.14;98434.38;5053702;28;1549;-80
2023/03/02 04:31:50;;;;;;;;;;;;;;;21.75;25.05;98434.16;5053924;28;1249;-81
2023/03/02 04:34:17;;;;;;;;;;;;;;;21.63;25.39;98436.84;5053583;28;1257;-80
2023/03/02 04:36:44;;;;;;;;;;;;;;;22.17;24.81;98443.00;5057019;28;1304;-81
2023/03/02 04:39:12;;;;;;;;;;;;;;;22.43;24.31;98454.59;5035512;28;2056;-81
2023/03/02 04:41:38;;;;;;;;;;;;;;;21.88;25.12;98444.84;5037220;28;1301;-80
2023/03/02 04:44:03;;;;;;;;;;;;;;;21.58;25.51;98452.31;5054863;28;1429;-81
2023/03/02 04:46:29;;;;;;;;;;;;;;;21.68;25.37;98450.50;5093857;28;1608;-81
2023/03/02 04:48:55;;;;;;;;;;;;;;;21.95;24.93;98461.69;5072877;28;1690;-81
2023/03/02 04:51:40;;;;;;;;;;;;;;;22.18;24.69;98466.50;5076972;28;796;-81
2023/03/02 04:54:07;;;;;;;;;;;;;;;21.94;24.84;98458.06;5093994;28;1390;-81
2023/03/02 04:56:33;;;;;;;;;;;;;;;21.91;24.97;98446.78;5063347;28;1110;-81
2023/03/02 04:58:58;;;;;;;;;;;;;;;21.72;25.34;98457.69;5080830;28;1910;-81
2023/03/02 05:01:24;;;;;;;;;;;;;;;22.05;25.03;98457.81;5081064;28;865;-82
2023/03/02 05:03:49;;;;;;;;;;;;;;;22.12;24.80;98457.69;5081678;28;1468;-82
2023/03/02 05:06:15;;;;;;;;;;;;;;;22.19;24.58;98451.91;5034217;28;1551;-81
2023/03/02 05:08:41;;;;;;;;;;;;;;;21.73;25.34;98470.63;5085406;28;1365;-81
2023/03/02 05:11:09;;;;;;;;;;;;;;;21.78;25.23;98461.63;5100436;28;968;-81
2023/03/02 05:13:34;;;;;;;;;;;;;;;22.16;24.84;98469.75;5100673;28;1284;-82
2023/03/02 05:16:00;;;;;;;;;;;;;;;22.17;24.96;98460.00;5088534;28;1406;-81
2023/03/02 05:18:26;;;;;;;;;;;;;;;22.23;24.82;98463.97;5073540;28;1898;-81
2023/03/02 05:20:52;;;;;;;;;;;;;;;21.73;25.08;98458.50;5085917;28;1497;-82
2023/03/02 05:23:22;;;;;;;;;;;;;;;21.84;24.94;98473.25;5094642;28;937;-81
2023/03/02 05:25:51;;;;;;;;;;;;;;;21.79;25.36;98468.88;5078823;28;1596;-81
2023/03/02 05:28:17;;;;;;;;;;;;;;;22.01;25.33;98462.75;5058278;28;1359;-81
2023/03/02 05:30:42;;;;;;;;;;;;;;;22.16;24.85;98472.59;5095313;28;1599;-81
2023/03/02 05:33:08;;;;;;;;;;;;;;;22.12;24.81;98469.03;5058787;28;861;-81
2023/03/02 05:35:34;;;;;;;;;;;;;;;21.89;25.04;98477.59;5077806;28;1580;-81
2023/03/02 05:37:59;;;;;;;;;;;;;;;21.68;25.32;98473.94;5072836;28;1973;-82
2023/03/02 05:40:25;;;;;;;;;;;;;;;21.89;25.38;98466.25;5091237;28;898;-82
2023/03/02 05:42:51;;;;;;;;;;;;;;;21.99;24.96;98459.59;5057702;28;1239;-82
2023/03/02 05:45:20;;;;;;;;;;;;;;;22.27;24.75;98472.38;5065559;28;1260;-82
2023/03/02 05:47:46;;;;;;;;;;;;;;;21.76;24.84;98478.25;5084992;28;1375;-81
2023/03/02 05:50:12;;;;;;;;;;;;;;;21.70;25.13;98479.19;5066994;28;1003;-81
2023/03/02 05:52:38;;;;;;;;;;;;;;;21.92;25.11;98482.41;5043097;28;953;-81
2023/03/02 05:55:03;;;;;;;;;;;;;;;22.19;24.68;98480.22;5059880;28;940;-81
2023/03/02 05:57:29;;;;;;;;;;;;;;;22.28;24.44;98483.28;5036307;28;1894;-81
2023/03/02 05:59:55;;;;;;;;;;;;;;;22.33;24.56;98487.63;5019096;28;1373;-82
2023/03/02 06:02:20;;;;;;;;;;;;;;;21.95;24.65;98504.19;5036172;28;947;-81
2023/03/02 06:04:46;;;;;;;;;;;;;;;21.72;24.99;98491.69;5076022;28;837;-81
2023/03/02 06:07:12;;;;;;;;;;;;;;;21.69;25.37;98492.53;5075465;28;1091;-81
2023/03/02 06:09:38;;;;;;;;;;;;;;;22.00;24.85;98492.34;5059496;28;913;-80
2023/03/02 06:12:03;;;;;;;;;;;;;;;21.85;25.00;98495.47;5059601;28;869;-82
2023/03/02 06:14:29;;;;;;;;;;;;;;;22.02;24.82;98498.38;5015450;28;1399;-80
2023/03/02 06:16:55;;;;;;;;;;;;;;;21.88;25.08;98499.47;5000070;28;1360;-81
2023/03/02 06:19:20;;;;;;;;;;;;;;;21.77;25.16;98505.34;4952805;28;1967;-82
2023/03/02 06:21:46;;;;;;;;;;;;;;;21.92;25.11;98505.06;5005605;28;1551;-81
2023/03/02 06:24:11;;;;;;;;;;;;;;;22.32;24.52;98495.31;4996335;28;959;-81
2023/03/02 06:26:37;;;;;;;;;;;;;;;22.31;24.48;98493.72;4964265;28;1189;-81
2023/03/02 06:29:04;;;;;;;;;;;;;;;21.92;24.72;98494.53;4996204;28;993;-81
2023/03/02 06:31:29;;;;;;;;;;;;;;;21.82;25.17;98502.00;4994746;28;1290;-81
2023/03/02 06:33:55;;;;;;;;;;;;;;;21.73;25.16;98501.78;5003507;28;956;-82
2023/03/02 06:36:21;;;;;;;;;;;;;;;22.08;24.91;98502.31;5004310;28;1054;-81
2023/03/02 06:38:46;;;;;;;;;;;;;;;22.41;24.18;98508.13;4998159;28;1983;-82
2023/03/02 06:41:12;;;;;;;;;;;;;;;22.16;24.46;98503.78;5015378;28;1805;-82
2023/03/02 06:43:37;;;;;;;;;;;;;;;21.92;24.78;98513.56;4998807;28;1620;-81
2023/03/02 06:46:03;;;;;;;;;;;;;;;21.47;25.35;98514.00;5015400;28;1174;-81
2023/03/02 06:48:29;;;;;;;;;;;;;;;21.52;25.44;98516.34;5015675;28;1184;-81
2023/03/02 06:50:54;;;;;;;;;;;;;;;22.20;24.43;98513.00;5020841;28;963;-81
2023/03/02 06:53:22;;;;;;;;;;;;;;;22.09;24.77;98527.38;5041981;28;1276;-81
2023/03/02 06:55:48;;;;;;;;;;;;;;;22.01;24.77;98516.59;5058763;28;1736;-81
2023/03/02 06:58:13;;;;;;;;;;;;;;;21.88;24.80;98521.34;5058231;28;1979;-81
2023/03/02 07:00:39;;;;;;;;;;;;;;;21.64;25.48;98517.72;5075306;28;917;-81
2023/03/02 07:03:04;;;;;;;;;;;;;;;21.80;25.02;98521.44;5058254;28;821;-81
2023/03/02 07:05:31;;;;;;;;;;;;;;;21.99;24.49;98513.41;5075278;28;920;-81
2023/03/02 07:07:59;;;;;;;;;;;;;;;22.10;24.86;98509.16;5055298;28;1299;-81
2023/03/02 07:10:25;;;;;;;;;;;;;;;21.96;24.86;98522.78;5055975;28;1193;-81
2023/03/02 07:12:51;;;;;;;;;;;;;;;21.99;24.75;98521.91;5089509;28;876;-81
2023/03/02 07:15:17;;;;;;;;;;;;;;;21.82;25.00;98521.03;5072414;28;831;-82
2023/03/02 07:17:43;;;;;;;;;;;;;;;22.03;24.66;98517.00;5080508;28;1972;-81
2023/03/02 07:20:09;;;;;;;;;;;;;;;21.97;24.71;98515.91;5093068;28;1112;-81
2023/03/02 07:22:34;;;;;;;;;;;;;;;22.33;24.26;98507.50;5109357;28;970;-81
2023/03/02 07:25:00;;;;;;;;;;;;;;;21.90;24.66;98513.97;5097964;28;848;-81
2023/03/02 07:27:26;;;;;;;;;;;;;;;21.75;25.13;98518.31;5108284;28;1342;-81
2023/03/02 07:29:51;;;;;;;;;;;;;;;21.63;24.96;98511.28;5060873;28;940;-81
2023/03/02 07:32:17;;;;;;;;;;;;;;;21.74;25.11;98505.41;5077700;28;973;-81
2023/03/02 07:34:42;;;;;;;;;;;;;;;21.87;24.85;98508.41;5061524;28;1167;-81
2023/03/02 07:37:08;;;;;;;;;;;;;;;22.07;24.69;98506.34;5078057;28;1985;-81
2023/03/02 07:39:33;;;;;;;;;;;;;;;21.66;25.07;98507.59;5094528;28;1008;-81
2023/03/02 07:41:59;;;;;;;;;;;;;;;21.54;25.11;98516.69;5044113;28;939;-81
2023/03/02 07:44:26;;;;;;;;;;;;;;;21.61;25.06;98508.09;5061355;28;1281;-81
2023/03/02 07:46:52;;;;;;;;;;;;;;;21.84;25.15;98510.84;5045584;28;1303;-81
2023/03/02 07:49:17;;;;;;;;;;;;;;;22.12;24.43;98503.03;5114758;28;804;-81
2023/03/02 07:51:43;;;;;;;;;;;;;;;22.14;24.62;98516.78;5097627;28;930;-80
2023/03/02 07:54:08;;;;;;;;;;;;;;;21.97;24.72;98519.53;5097856;28;1122;-81
2023/03/02 07:56:34;;;;;;;;;;;;;;;21.81;24.74;98527.91;5067450;28;1530;-81
2023/03/02 07:59:00;;;;;;;;;;;;;;;21.67;24.97;98512.00;5088767;28;1909;-81
2023/03/02 08:01:25;;;;;;;;;;;;;;;22.13;24.53;98518.03;5088324;28;951;-81
2023/03/02 08:03:51;;;;;;;;;;;;;;;21.92;24.83;98516.41;5088456;28;1298;-81
2023/03/02 08:06:16;;;;;;;;;;;;;;;21.81;25.00;98516.59;5088810;28;1249;-81
2023/03/02 08:08:42;;;;;;;;;;;;;;;21.75;24.99;98521.16;5037399;28;1057;-81
2023/03/02 08:11:08;;;;;;;;;;;;;;;21.62;25.07;98515.34;5070806;28;948;-81
2023/03/02 08:13:34;;;;;;;;;;;;;;;22.05;24.54;98515.31;5053530;28;1483;-81
2023/03/02 08:16:00;;;;;;;;;;;;;;;21.96;24.70;98519.94;5053923;28;896;-81
2023/03/02 08:18:26;;;;;;;;;;;;;;;21.92;25.00;98527.75;5053229;28;1902;-81
2023/03/02 08:20:54;;;;;;;;;;;;;;;21.80;24.77;98521.44;5053917;28;1153;-81
2023/03/02 08:23:19;;;;;;;;;;;;;;;21.83;24.87;98525.47;5052799;28;1504;-81
2023/03/02 08:25:45;;;;;;;;;;;;;;;21.64;25.29;98529.84;5037277;28;943;-80
2023/03/02 08:28:10;;;;;;;;;;;;;;;22.08;24.85;98530.66;5020774;28;1330;-81
2023/03/02 08:30:36;;;;;;;;;;;;;;;22.12;24.64;98537.06;5057237;28;896;-81
2023/03/02 08:33:02;;;;;;;;;;;;;;;21.95;24.71;98538.19;5057402;28;1541;-81
2023/03/02 08:35:27;;;;;;;;;;;;;;;21.76;24.82;98532.06;5041334;28;973;-80
2023/03/02 08:37:53;;;;;;;;;;;;;;;21.46;25.40;98535.06;5040741;28;1906;-81
2023/03/02 08:40:18;;;;;;;;;;;;;;;21.79;25.17;98531.19;5040949;28;915;-81
2023/03/02 08:42:44;;;;;;;;;;;;;;;22.03;24.80;98528.31;5056804;28;1364;-81
2023/03/02 08:45:10;;;;;;;;;;;;;;;22.10;24.40;98531.81;5041005;28;1118;-81
2023/03/02 08:47:35;;;;;;;;;;;;;;;21.90;24.99;98535.84;5057271;28;951;-81
2023/03/02 08:50:01;;;;;;;;;;;;;;;21.83;24.93;98537.59;5041130;28;939;-81
2023/03/02 08:52:26;;;;;;;;;;;;;;;21.78;24.96;98529.59;5043561;28;1318;-81
2023/03/02 08:54:52;;;;;;;;;;;;;;;21.74;24.96;98539.38;5029258;28;1324;-81
2023/03/02 08:57:17;;;;;;;;;;;;;;;21.87;24.95;98522.56;5057280;28;1985;-81
2023/03/02 08:59:43;;;;;;;;;;;;;;;21.88;24.75;98527.78;5040620;28;1280;-81
2023/03/02 09:02:11;;;;;;;;;;;;;;;21.82;24.77;98536.00;5065126;28;1429;-81
2023/03/02 09:04:37;;;;;;;;;;;;;;;21.61;25.01;98542.06;5036988;28;852;-81
2023/03/02 09:07:03;;;;;;;;;;;;;;;21.66;25.39;98532.25;5040432;28;1153;-81
2023/03/02 09:09:28;;;;;;;;;;;;;;;22.04;24.62;98535.59;5025289;28;1055;-81
2023/03/02 09:11:54;;;;;;;;;;;;;;;22.06;24.62;98527.44;5042272;28;1376;-81
2023/03/02 09:14:19;;;;;;;;;;;;;;;21.88;24.74;98527.00;5075547;28;1113;-81
2023/03/02 09:16:45;;;;;;;;;;;;;;;21.59;25.18;98521.84;5063183;28;1229;-81
2023/03/02 09:19:11;;;;;;;;;;;;;;;21.46;25.22;98518.06;5080193;28;1970;-81
2023/03/02 09:21:37;;;;;;;;;;;;;;;21.92;25.12;98522.06;5093505;28;1442;-81
2023/03/02 09:24:02;;;;;;;;;;;;;;;22.22;24.63;98507.69;5076907;28;909;-81
2023/03/02 09:26:28;;;;;;;;;;;;;;;22.29;24.46;98516.06;5093925;28;1070;-80
2023/03/02 09:28:54;;;;;;;;;;;;;;;21.92;25.01;98510.75;5060161;28;975;-81
2023/03/02 09:31:19;;;;;;;;;;;;;;;21.67;25.28;98523.34;5043559;28;1416;-81
2023/03/02 09:33:45;;;;;;;;;;;;;;;21.69;25.14;98514.41;5059953;28;918;-81
2023/03/02 09:36:10;;;;;;;;;;;;;;;22.13;24.44;98503.88;5076579;28;990;-81
2023/03/02 09:38:36;;;;;;;;;;;;;;;21.99;24.83;98507.75;5057645;28;1987;-81
2023/03/02 09:41:11;;;;;;;;;;;;;;;21.90;24.63;98516.03;5073565;28;968;-80
2023/03/02 09:43:55;;;;;;;;;;;;;;;21.63;25.19;98502.78;5077010;28;1331;-81
2023/03/02 09:46:39;;;;;;;;;;;;;;;21.69;25.05;98503.88;5077831;28;858;-81
2023/03/02 09:49:04;;;;;;;;;;;;;;;21.93;24.80;98501.00;5077766;28;1285;-81
2023/03/02 09:51:31;;;;;;;;;;;;;;;22.02;24.83;98507.69;5076148;28;1299;-81
2023/03/02 09:53:57;;;;;;;;;;;;;;;21.97;24.98;98507.41;5091065;28;912;-81
2023/03/02 09:56:22;;;;;;;;;;;;;;;21.68;25.34;98490.94;5057303;28;943;-81
2023/03/02 09:58:54;;;;;;;;;;;;;;;21.55;25.33;98489.97;5096404;28;1913;-80
2023/03/02 10:01:21;;;;;;;;;;;;;;;21.59;25.23;98493.53;5079508;28;880;-81
2023/03/02 10:03:55;;;;;;;;;;;;;;;22.23;24.24;98485.84;5089014;28;1619;-80
2023/03/02 10:06:20;;;;;;;;;;;;;;;22.26;24.25;98490.63;5075877;28;1364;-81
2023/03/02 10:08:49;;;;;;;;;;;;;;;22.01;24.76;98485.44;5056562;28;916;-81
2023/03/02 10:11:41;;;;;;;;;;;;;;;21.89;24.90;98488.94;5039199;28;882;-81
2023/03/02 10:14:12;;;;;;;;;;;;;;;21.75;25.24;98485.13;4996829;28;978;-81
2023/03/02 10:16:47;;;;;;;;;;;;;;;22.11;24.48;98478.78;4995959;28;2041;-81
2023/03/02 10:19:13;;;;;;;;;;;;;;;22.17;24.57;98474.19;4980009;28;1977;-81
2023/03/02 10:21:38;;;;;;;;;;;;;;;22.37;24.10;98474.16;4996028;28;1381;-81
2023/03/02 10:24:11;;;;;;;;;;;;;;;21.81;24.79;98477.75;4996389;28;1215;-81
2023/03/02 10:26:43;;;;;;;;;;;;;;;21.79;24.97;98470.91;4980223;28;1266;-81
2023/03/02 10:29:09;;;;;;;;;;;;;;;21.73;25.10;98473.44;4970993;28;914;-81
2023/03/02 10:31:35;;;;;;;;;;;;;;;21.69;25.30;98475.53;4956919;28;1456;-81
2023/03/02 10:34:00;;;;;;;;;;;;;;;22.16;24.77;98475.44;4973810;28;1249;-81
2023/03/02 10:36:27;;;;;;;;;;;;;;;22.06;24.50;98470.75;4973874;28;936;-81
2023/03/02 10:38:53;;;;;;;;;;;;;;;22.00;24.61;98466.84;4978436;28;1918;-81
2023/03/02 10:41:24;;;;;;;;;;;;;;;21.99;24.63;98473.75;5012569;28;1182;-81
2023/03/02 10:43:54;;;;;;;;;;;;;;;21.66;25.20;98465.09;5030671;28;1547;-81
2023/03/02 10:46:20;;;;;;;;;;;;;;;22.19;24.42;98468.91;5015931;28;1192;-81
2023/03/02 10:48:56;;;;;;;;;;;;;;;22.26;24.30;98460.22;4999198;28;1103;-81
2023/03/02 10:51:21;;;;;;;;;;;;;;;21.93;24.77;98459.28;5057737;28;1229;-81
2023/03/02 10:53:47;;;;;;;;;;;;;;;21.83;24.96;98457.47;5058465;28;1342;-81
2023/03/02 10:56:15;;;;;;;;;;;;;;;21.77;25.15;98448.69;5089429;28;945;-81
2023/03/02 10:58:40;;;;;;;;;;;;;;;22.18;24.46;98452.34;5089785;28;1918;-81
2023/03/02 11:01:14;;;;;;;;;;;;;;;22.18;24.49;98453.13;5090179;28;828;-81
2023/03/02 11:03:39;;;;;;;;;;;;;;;22.06;24.98;98456.59;5072215;28;1398;-81
2023/03/02 11:06:18;;;;;;;;;;;;;;;22.00;24.98;98444.16;5109910;28;847;-81
2023/03/02 11:08:43;;;;;;;;;;;;;;;21.75;24.98;98439.03;5109877;28;867;-81
2023/03/02 11:11:22;;;;;;;;;;;;;;;21.92;24.89;98431.41;5077002;28;942;-81
2023/03/02 11:13:47;;;;;;;;;;;;;;;22.20;24.37;98430.81;5075108;28;1315;-81
2023/03/02 11:16:16;;;;;;;;;;;;;;;22.10;24.47;98424.13;5055783;28;1369;-81
2023/03/02 11:18:43;;;;;;;;;;;;;;;21.81;24.88;98431.59;5062366;28;1973;-81
2023/03/02 11:21:13;;;;;;;;;;;;;;;21.68;25.31;98420.16;5054934;28;1401;-81
2023/03/02 11:23:39;;;;;;;;;;;;;;;21.75;25.08;98427.69;5082625;28;1719;-81
2023/03/02 11:26:19;;;;;;;;;;;;;;;22.19;24.69;98423.53;5054480;28;1460;-81
2023/03/02 11:28:53;;;;;;;;;;;;;;;22.24;24.42;98427.91;5068197;28;1581;-81
2023/03/02 11:31:23;;;;;;;;;;;;;;;21.80;25.22;98424.34;5057790;28;1278;-81
2023/03/02 11:34:08;;;;;;;;;;;;;;;21.74;25.40;98426.91;5057073;28;1395;-82
2023/03/02 11:37:01;;;;;;;;;;;;;;;21.74;25.44;98426.91;5035784;28;1728;-80
2023/03/02 11:39:55;;;;;;;;;;;;;;;22.59;24.31;98417.78;5012568;28;1965;-82
2023/03/02 11:42:21;;;;;;;;;;;;;;;22.23;24.63;98421.44;4956836;28;2340;-78
2023/03/02 11:44:47;;;;;;;;;;;;;;;22.12;24.72;98426.53;4953408;29;1939;-81
2023/03/02 11:47:12;;;;;;;;;;;;;;;21.91;25.00;98421.28;4939480;29;1108;-81
2023/03/02 11:49:42;;;;;;;;;;;;;;;22.02;24.96;98421.84;4955429;29;1107;-80
2023/03/02 11:52:16;;;;;;;;;;;;;;;21.82;25.27;98419.84;4947527;28;1874;-81
2023/03/02 11:54:42;;;;;;;;;;;;;;;21.71;25.29;98419.28;4956686;28;1977;-80
2023/03/02 11:57:34;;;;;;;;;;;;;;;21.76;25.69;98401.78;4973085;28;1842;-81
2023/03/02 12:00:00;;;;;;;;;;;;;;;21.51;26.18;98409.97;4942424;29;1453;-80
2023/03/02 12:02:26;;;;;;;;;;;;;;;21.82;25.66;98411.34;4936191;29;1544;-81
2023/03/02 12:05:04;;;;;;;;;;;;;;;21.79;25.78;98406.56;4918575;29;1810;-81
2023/03/02 12:07:30;;;;;;;;;;;;;;;21.89;25.86;98409.59;4934041;29;1667;-80
2023/03/02 12:09:56;;;;;;;;;;;;;;;21.90;25.77;98408.38;4938323;29;1368;-81
2023/03/02 12:12:24;;;;;;;;;;;;;;;21.76;25.95;98401.78;4936190;29;998;-80
2023/03/02 12:14:51;;;;;;;;;;;;;;;21.76;25.95;98407.44;4930341;29;1564;-79
2023/03/02 12:17:25;;;;;;;;;;;;;;;21.58;26.01;98404.97;4904922;29;1980;-79
2023/03/02 12:20:14;;;;;;;;;;;;;;;21.62;26.06;98402.06;5001919;28;921;-78
2023/03/02 12:22:40;;;;;;;;;;;;;;;21.91;25.71;98407.91;4995270;28;983;-79
2023/03/02 12:25:21;;;;;;;;;;;;;;;21.91;25.91;98407.13;4977442;28;1360;-79
2023/03/02 12:27:48;;;;;;;;;;;;;;;21.89;25.61;98403.94;5006816;28;1375;-78
2023/03/02 12:30:23;;;;;;;;;;;;;;;21.68;25.84;98397.50;4979644;28;1626;-78
2023/03/02 12:33:07;;;;;;;;;;;;;;;22.14;25.30;98411.94;4983059;28;1603;-78
2023/03/02 12:35:33;;;;;;;;;;;;;;;22.10;25.46;98414.81;4997018;28;1404;-78
2023/03/02 12:37:59;;;;;;;;;;;;;;;22.15;25.19;98417.16;5075453;28;1899;-78
2023/03/02 12:40:43;;;;;;;;;;;;;;;21.93;25.50;98407.50;5059854;28;1125;-79
2023/03/02 12:43:13;;;;;;;;;;;;;;;21.51;25.87;98409.97;5087540;28;2391;-79
2023/03/02 12:45:57;;;;;;;;;;;;;;;21.67;26.06;98410.06;5069139;28;1621;-79
2023/03/02 12:48:29;;;;;;;;;;;;;;;21.84;25.56;98408.88;5073218;28;1457;-78
2023/03/02 12:50:59;;;;;;;;;;;;;;;22.09;25.26;98414.00;5036418;28;900;-78
2023/03/02 12:53:24;;;;;;;;;;;;;;;21.85;25.49;98415.34;5034611;28;1166;-78
2023/03/02 12:55:50;;;;;;;;;;;;;;;21.83;25.57;98412.16;5093266;28;1254;-78
2023/03/02 12:58:22;;;;;;;;;;;;;;;21.55;25.93;98405.03;5059349;28;1905;-78
2023/03/02 13:00:48;;;;;;;;;;;;;;;21.92;25.64;98397.41;5076508;28;1688;-78
2023/03/02 13:03:14;;;;;;;;;;;;;;;22.31;24.90;98408.69;5076338;28;1227;-78